createdAt,value
2019-04-04T00:00:27.441Z,10.03
2019-04-04T00:01:00.719Z,10.00
2019-04-04T00:01:33.938Z,10.02
2019-04-04T00:02:07.104Z,10.00
2019-04-04T00:02:38.384Z,9.99
2019-04-04T00:03:09.679Z,10.00
2019-04-04T00:03:42.970Z,9.96
2019-04-04T00:04:14.338Z,9.98
2019-04-04T00:04:45.622Z,9.98
2019-04-04T00:05:16.938Z,9.98
2019-04-04T00:05:48.214Z,9.93
2019-04-04T00:06:19.520Z,9.95
2019-04-04T00:06:51.815Z,9.95
2019-04-04T00:07:23.195Z,9.92
2019-04-04T00:07:54.475Z,9.92
2019-04-04T00:08:25.742Z,9.90
2019-04-04T00:08:57.045Z,9.90
2019-04-04T00:09:31.161Z,9.90
2019-04-04T00:10:05.003Z,9.88
2019-04-04T00:10:36.280Z,9.86
2019-04-04T00:11:07.661Z,9.88
2019-04-04T00:11:38.948Z,9.85
2019-04-04T00:12:10.353Z,9.84
2019-04-04T00:12:41.737Z,9.86
2019-04-04T00:13:13.047Z,9.81
2019-04-04T00:13:44.539Z,9.84
2019-04-04T00:14:15.919Z,9.82
2019-04-04T00:14:47.403Z,9.78
2019-04-04T00:15:18.797Z,9.78
2019-04-04T00:15:50.181Z,9.76
2019-04-04T00:16:21.573Z,9.75
2019-04-04T00:16:52.968Z,9.73
2019-04-04T00:17:24.395Z,9.73
2019-04-04T00:17:55.902Z,9.72
2019-04-04T00:18:27.996Z,9.72
2019-04-04T00:18:59.561Z,9.68
2019-04-04T00:19:30.983Z,9.68
2019-04-04T00:20:05.354Z,9.69
2019-04-04T00:20:37.772Z,9.66
2019-04-04T00:21:09.139Z,9.63
2019-04-04T00:21:40.475Z,9.65
2019-04-04T00:22:11.733Z,9.62
2019-04-04T00:22:43.185Z,9.61
2019-04-04T00:23:14.730Z,9.59
2019-04-04T00:23:46.173Z,9.61
2019-04-04T00:24:17.627Z,9.59
2019-04-04T00:24:49.073Z,9.58
2019-04-04T00:25:20.521Z,9.58
2019-04-04T00:25:52.962Z,9.57
2019-04-04T00:26:24.501Z,9.57
2019-04-04T00:26:56.034Z,9.54
2019-04-04T00:27:27.450Z,9.55
2019-04-04T00:27:58.838Z,9.55
2019-04-04T00:28:30.573Z,9.54
2019-04-04T00:29:02.128Z,9.52
2019-04-04T00:29:33.794Z,9.51
2019-04-04T00:30:05.980Z,9.49
2019-04-04T00:30:37.374Z,9.48
2019-04-04T00:31:08.763Z,9.48
2019-04-04T00:31:40.157Z,9.47
2019-04-04T00:32:11.538Z,9.45
2019-04-04T00:32:42.932Z,9.42
2019-04-04T00:33:14.320Z,9.45
2019-04-04T00:33:45.716Z,9.45
2019-04-04T00:34:17.298Z,9.42
2019-04-04T00:34:48.754Z,9.40
2019-04-04T00:35:20.196Z,9.40
2019-04-04T00:35:51.605Z,9.35
2019-04-04T00:36:23.002Z,9.38
2019-04-04T00:36:54.432Z,9.35
2019-04-04T00:37:25.729Z,9.34
2019-04-04T00:37:57.107Z,9.31
2019-04-04T00:38:29.921Z,9.33
2019-04-04T00:39:01.325Z,9.33
2019-04-04T00:39:33.003Z,9.33
2019-04-04T00:40:05.618Z,9.30
2019-04-04T00:40:37.001Z,9.30
2019-04-04T00:41:08.489Z,9.30
2019-04-04T00:41:39.877Z,9.27
2019-04-04T00:42:11.303Z,9.26
2019-04-04T00:42:42.705Z,9.27
2019-04-04T00:43:14.125Z,9.24
2019-04-04T00:43:45.665Z,9.23
2019-04-04T00:44:17.121Z,9.24
2019-04-04T00:44:48.565Z,9.23
2019-04-04T00:45:20.018Z,9.21
2019-04-04T00:45:51.479Z,9.19
2019-04-04T00:46:22.944Z,9.20
2019-04-04T00:46:54.519Z,9.19
2019-04-04T00:47:25.961Z,9.17
2019-04-04T00:47:57.394Z,9.17
2019-04-04T00:48:28.772Z,9.17
2019-04-04T00:49:00.574Z,9.13
2019-04-04T00:49:31.935Z,9.11
2019-04-04T00:50:06.701Z,9.09
2019-04-04T00:50:38.230Z,9.09
2019-04-04T00:51:10.658Z,9.07
2019-04-04T00:51:42.025Z,9.07
2019-04-04T00:52:13.438Z,9.04
2019-04-04T00:52:44.810Z,9.03
2019-04-04T00:53:16.344Z,9.04
2019-04-04T00:53:47.708Z,9.03
2019-04-04T00:54:19.128Z,9.02
2019-04-04T00:54:50.500Z,9.00
2019-04-04T00:55:22.030Z,8.99
2019-04-04T00:55:53.414Z,8.96
2019-04-04T00:56:24.740Z,8.95
2019-04-04T00:56:56.124Z,8.93
2019-04-04T00:57:27.441Z,8.92
2019-04-04T00:57:58.828Z,8.92
2019-04-04T00:58:30.470Z,8.90
2019-04-04T00:59:03.089Z,8.88
2019-04-04T00:59:34.613Z,8.86
2019-04-04T01:00:06.797Z,8.86
2019-04-04T01:00:38.264Z,8.86
2019-04-04T01:01:09.859Z,8.86
2019-04-04T01:01:41.398Z,8.83
2019-04-04T01:02:12.777Z,8.83
2019-04-04T01:02:44.315Z,8.80
2019-04-04T01:03:15.722Z,8.82
2019-04-04T01:03:47.183Z,8.80
2019-04-04T01:04:18.707Z,8.80
2019-04-04T01:04:50.161Z,8.75
2019-04-04T01:05:21.724Z,8.75
2019-04-04T01:05:53.187Z,8.76
2019-04-04T01:06:24.637Z,8.71
2019-04-04T01:06:56.196Z,8.72
2019-04-04T01:07:27.764Z,8.72
2019-04-04T01:07:59.220Z,8.72
2019-04-04T01:08:30.888Z,8.71
2019-04-04T01:09:05.112Z,8.69
2019-04-04T01:09:36.925Z,8.71
2019-04-04T01:10:08.295Z,8.66
2019-04-04T01:10:39.714Z,8.65
2019-04-04T01:11:11.091Z,8.65
2019-04-04T01:11:42.515Z,8.62
2019-04-04T01:12:13.879Z,8.61
2019-04-04T01:12:45.294Z,8.62
2019-04-04T01:13:16.692Z,8.59
2019-04-04T01:13:48.144Z,8.59
2019-04-04T01:14:19.899Z,8.61
2019-04-04T01:14:51.452Z,8.55
2019-04-04T01:15:22.988Z,8.58
2019-04-04T01:15:54.544Z,8.56
2019-04-04T01:16:27.007Z,8.53
2019-04-04T01:16:58.577Z,8.53
2019-04-04T01:17:30.120Z,8.52
2019-04-04T01:18:01.600Z,8.51
2019-04-04T01:18:33.028Z,8.49
2019-04-04T01:19:04.491Z,8.48
2019-04-04T01:19:35.917Z,8.47
2019-04-04T01:20:07.681Z,8.47
2019-04-04T01:20:39.094Z,8.44
2019-04-04T01:21:10.509Z,8.47
2019-04-04T01:21:41.991Z,8.44
2019-04-04T01:22:13.382Z,8.44
2019-04-04T01:22:44.809Z,8.44
2019-04-04T01:23:16.221Z,8.40
2019-04-04T01:23:47.725Z,8.41
2019-04-04T01:24:19.132Z,8.37
2019-04-04T01:24:50.547Z,8.38
2019-04-04T01:25:21.947Z,8.38
2019-04-04T01:25:53.341Z,8.37
2019-04-04T01:26:24.744Z,8.38
2019-04-04T01:26:56.140Z,8.37
2019-04-04T01:27:28.527Z,8.32
2019-04-04T01:27:59.926Z,8.31
2019-04-04T01:28:32.356Z,8.31
2019-04-04T01:29:05.741Z,8.30
2019-04-04T01:29:37.209Z,8.31
2019-04-04T01:30:11.740Z,8.31
2019-04-04T01:30:43.598Z,8.28
2019-04-04T01:31:15.648Z,8.27
2019-04-04T01:31:47.054Z,8.28
2019-04-04T01:32:18.370Z,8.28
2019-04-04T01:32:49.766Z,8.27
2019-04-04T01:33:21.104Z,8.24
2019-04-04T01:33:52.397Z,8.25
2019-04-04T01:34:23.692Z,8.24
2019-04-04T01:34:55.132Z,8.24
2019-04-04T01:35:26.538Z,8.24
2019-04-04T01:35:57.922Z,8.24
2019-04-04T01:36:29.313Z,8.23
2019-04-04T01:37:00.778Z,8.21
2019-04-04T01:37:32.071Z,8.24
2019-04-04T01:38:03.838Z,8.24
2019-04-04T01:38:35.243Z,8.21
2019-04-04T01:39:06.733Z,8.21
2019-04-04T01:39:38.183Z,8.23
2019-04-04T01:40:09.637Z,8.23
2019-04-04T01:40:40.990Z,8.21
2019-04-04T01:41:12.368Z,8.23
2019-04-04T01:41:43.719Z,8.21
2019-04-04T01:42:15.263Z,8.21
2019-04-04T01:42:47.719Z,8.23
2019-04-04T01:43:19.079Z,8.20
2019-04-04T01:44:04.145Z,8.16
2019-04-04T01:44:24.658Z,8.17
2019-04-04T01:44:55.981Z,8.17
2019-04-04T01:45:27.231Z,8.17
2019-04-04T01:45:58.654Z,8.17
2019-04-04T01:46:30.025Z,8.20
2019-04-04T01:47:01.443Z,8.16
2019-04-04T01:47:33.005Z,8.18
2019-04-04T01:48:04.335Z,8.17
2019-04-04T01:48:35.705Z,8.16
2019-04-04T01:49:07.033Z,8.14
2019-04-04T01:49:38.301Z,8.14
2019-04-04T01:50:09.729Z,8.14
2019-04-04T01:50:40.996Z,8.11
2019-04-04T01:51:12.319Z,8.11
2019-04-04T01:51:43.588Z,8.10
2019-04-04T01:52:14.916Z,8.09
2019-04-04T01:52:48.131Z,8.09
2019-04-04T01:53:19.506Z,8.09
2019-04-04T01:53:50.771Z,8.07
2019-04-04T01:54:22.205Z,8.11
2019-04-04T01:54:53.478Z,8.09
2019-04-04T01:55:24.835Z,8.09
2019-04-04T01:55:56.096Z,8.06
2019-04-04T01:56:27.424Z,8.06
2019-04-04T01:56:58.792Z,8.06
2019-04-04T01:57:30.523Z,8.04
2019-04-04T01:58:01.798Z,8.04
2019-04-04T01:58:33.464Z,8.04
2019-04-04T01:59:04.754Z,8.04
2019-04-04T01:59:36.074Z,8.02
2019-04-04T02:00:08.158Z,8.04
2019-04-04T02:00:39.596Z,8.04
2019-04-04T02:01:10.967Z,8.03
2019-04-04T02:01:42.264Z,8.03
2019-04-04T02:02:13.667Z,8.03
2019-04-04T02:02:45.024Z,8.04
2019-04-04T02:03:16.301Z,8.02
2019-04-04T02:03:47.724Z,8.02
2019-04-04T02:04:19.109Z,8.00
2019-04-04T02:04:50.385Z,8.02
2019-04-04T02:05:21.706Z,8.02
2019-04-04T02:05:52.977Z,8.03
2019-04-04T02:06:24.397Z,8.00
2019-04-04T02:06:58.815Z,8.02
2019-04-04T02:07:29.848Z,8.00
2019-04-04T02:08:01.687Z,8.00
2019-04-04T02:08:41.819Z,8.00
2019-04-04T02:09:13.225Z,8.00
2019-04-04T02:09:46.427Z,7.96
2019-04-04T02:10:17.676Z,7.97
2019-04-04T02:10:52.007Z,7.96
2019-04-04T02:11:23.295Z,7.96
2019-04-04T02:12:03.395Z,7.96
2019-04-04T02:12:34.691Z,7.97
2019-04-04T02:13:06.014Z,7.94
2019-04-04T02:13:38.876Z,7.94
2019-04-04T02:14:19.531Z,7.96
2019-04-04T02:14:56.806Z,7.94
2019-04-04T02:15:30.873Z,7.96
2019-04-04T02:16:02.161Z,7.94
2019-04-04T02:16:36.270Z,7.93
2019-04-04T02:17:15.270Z,7.94
2019-04-04T02:17:46.557Z,7.94
2019-04-04T02:18:17.864Z,7.96
2019-04-04T02:18:49.154Z,7.93
2019-04-04T02:19:20.478Z,7.93
2019-04-04T02:19:51.812Z,7.92
2019-04-04T02:20:23.177Z,7.93
2019-04-04T02:20:57.684Z,7.92
2019-04-04T02:21:28.782Z,7.92
2019-04-04T02:22:00.851Z,7.90
2019-04-04T02:22:32.207Z,7.90
2019-04-04T02:23:03.742Z,7.92
2019-04-04T02:23:35.083Z,7.90
2019-04-04T02:24:06.434Z,7.90
2019-04-04T02:24:37.846Z,7.92
2019-04-04T02:25:09.240Z,7.89
2019-04-04T02:25:40.714Z,7.90
2019-04-04T02:26:12.063Z,7.90
2019-04-04T02:26:43.442Z,7.90
2019-04-04T02:27:18.883Z,7.90
2019-04-04T02:27:50.195Z,7.86
2019-04-04T02:28:30.023Z,7.89
2019-04-04T02:29:06.951Z,7.89
2019-04-04T02:29:39.927Z,7.89
2019-04-04T02:30:21.145Z,7.89
2019-04-04T02:30:55.217Z,7.88
2019-04-04T02:31:34.318Z,7.88
2019-04-04T02:32:16.348Z,7.89
2019-04-04T02:32:53.838Z,7.89
2019-04-04T02:33:35.550Z,7.89
2019-04-04T02:34:09.649Z,7.88
2019-04-04T02:34:40.929Z,7.88
2019-04-04T02:35:12.220Z,7.89
2019-04-04T02:35:43.983Z,7.85
2019-04-04T02:36:16.762Z,7.86
2019-04-04T02:36:49.856Z,7.86
2019-04-04T02:37:22.079Z,7.85
2019-04-04T02:37:59.170Z,7.83
2019-04-04T02:38:30.689Z,7.85
2019-04-04T02:39:14.134Z,7.85
2019-04-04T02:39:51.273Z,7.85
2019-04-04T02:40:22.570Z,7.85
2019-04-04T02:40:53.916Z,7.85
2019-04-04T02:41:38.874Z,7.85
2019-04-04T02:42:10.213Z,7.85
2019-04-04T02:42:41.846Z,7.86
2019-04-04T02:43:13.202Z,7.88
2019-04-04T02:43:55.164Z,7.85
2019-04-04T02:44:26.502Z,7.86
2019-04-04T02:45:05.111Z,7.85
2019-04-04T02:45:48.795Z,7.83
2019-04-04T02:46:33.940Z,7.85
2019-04-04T02:47:17.339Z,7.83
2019-04-04T02:47:56.001Z,7.85
2019-04-04T02:48:33.204Z,7.85
2019-04-04T02:49:04.551Z,7.83
2019-04-04T02:49:35.935Z,7.82
2019-04-04T02:50:07.335Z,7.81
2019-04-04T02:50:38.629Z,7.82
2019-04-04T02:51:28.302Z,7.78
2019-04-04T02:52:07.142Z,7.82
2019-04-04T02:52:38.476Z,7.81
2019-04-04T02:53:10.899Z,7.78
2019-04-04T02:53:42.244Z,7.81
2019-04-04T02:54:13.589Z,7.79
2019-04-04T02:54:44.945Z,7.78
2019-04-04T02:55:21.902Z,7.81
2019-04-04T02:55:55.893Z,7.78
2019-04-04T02:56:34.973Z,7.79
2019-04-04T02:57:07.931Z,7.79
2019-04-04T02:58:15.046Z,7.79
2019-04-04T02:58:47.339Z,7.79
2019-04-04T02:59:22.060Z,7.81
2019-04-04T02:59:54.283Z,7.76
2019-04-04T03:00:30.383Z,7.76
2019-04-04T03:01:01.673Z,7.75
2019-04-04T03:01:35.972Z,7.78
2019-04-04T03:02:07.307Z,7.76
2019-04-04T03:02:38.662Z,7.75
2019-04-04T03:03:17.463Z,7.78
2019-04-04T03:03:57.706Z,7.76
2019-04-04T03:04:57.798Z,7.75
2019-04-04T03:05:31.667Z,7.73
2019-04-04T03:06:05.463Z,7.76
2019-04-04T03:06:36.801Z,7.73
2019-04-04T03:07:11.611Z,7.73
2019-04-04T03:07:45.569Z,7.73
2019-04-04T03:08:16.889Z,7.72
2019-04-04T03:09:09.046Z,7.75
2019-04-04T03:09:43.525Z,7.72
2019-04-04T03:10:16.481Z,7.69
2019-04-04T03:10:49.460Z,7.69
2019-04-04T03:11:40.002Z,7.70
2019-04-04T03:12:25.660Z,7.69
2019-04-04T03:12:58.502Z,7.69
2019-04-04T03:13:32.237Z,7.69
2019-04-04T03:14:04.757Z,7.66
2019-04-04T03:14:41.691Z,7.66
2019-04-04T03:15:13.017Z,7.67
2019-04-04T03:15:49.075Z,7.65
2019-04-04T03:16:21.513Z,7.66
2019-04-04T03:16:56.329Z,7.63
2019-04-04T03:17:32.634Z,7.63
2019-04-04T03:18:06.876Z,7.61
2019-04-04T03:18:38.232Z,7.65
2019-04-04T03:19:11.077Z,7.63
2019-04-04T03:19:43.787Z,7.61
2019-04-04T03:20:18.612Z,7.61
2019-04-04T03:20:52.763Z,7.61
2019-04-04T03:21:24.029Z,7.62
2019-04-04T03:21:56.483Z,7.59
2019-04-04T03:22:28.407Z,7.61
2019-04-04T03:23:08.811Z,7.59
2019-04-04T03:23:42.745Z,7.59
2019-04-04T03:24:38.682Z,7.59
2019-04-04T03:25:08.673Z,7.56
2019-04-04T03:25:46.759Z,7.61
2019-04-04T03:26:18.980Z,7.55
2019-04-04T03:26:52.217Z,7.56
2019-04-04T03:27:25.801Z,7.56
2019-04-04T03:27:58.264Z,7.56
2019-04-04T03:28:31.862Z,7.55
2019-04-04T03:29:05.466Z,7.56
2019-04-04T03:29:39.179Z,7.56
2019-04-04T03:30:14.347Z,7.54
2019-04-04T03:31:00.620Z,7.54
2019-04-04T03:31:22.600Z,7.55
2019-04-04T03:31:53.960Z,7.55
2019-04-04T03:32:25.257Z,7.54
2019-04-04T03:33:02.265Z,7.55
2019-04-04T03:33:33.643Z,7.54
2019-04-04T03:34:12.459Z,7.55
2019-04-04T03:34:47.803Z,7.52
2019-04-04T03:35:16.126Z,7.54
2019-04-04T03:35:48.386Z,7.54
2019-04-04T03:36:19.699Z,7.52
2019-04-04T03:36:53.750Z,7.55
2019-04-04T03:37:25.065Z,7.54
2019-04-04T03:37:57.304Z,7.52
2019-04-04T03:38:34.693Z,7.51
2019-04-04T03:39:11.932Z,7.54
2019-04-04T03:39:43.240Z,7.51
2019-04-04T03:40:25.931Z,7.51
2019-04-04T03:41:13.921Z,7.51
2019-04-04T03:41:45.173Z,7.52
2019-04-04T03:42:16.497Z,7.51
2019-04-04T03:42:59.643Z,7.51
2019-04-04T03:43:36.625Z,7.51
2019-04-04T03:44:13.780Z,7.48
2019-04-04T03:44:45.098Z,7.51
2019-04-04T03:45:27.322Z,7.46
2019-04-04T03:46:09.709Z,7.49
2019-04-04T03:46:40.961Z,7.48
2019-04-04T03:47:12.258Z,7.48
2019-04-04T03:47:50.301Z,7.46
2019-04-04T03:48:21.575Z,7.48
2019-04-04T03:48:58.555Z,7.46
2019-04-04T03:49:48.064Z,7.46
2019-04-04T03:50:22.197Z,7.46
2019-04-04T03:50:56.745Z,7.46
2019-04-04T03:51:37.084Z,7.45
2019-04-04T03:52:10.099Z,7.45
2019-04-04T03:52:44.276Z,7.42
2019-04-04T03:53:19.084Z,7.44
2019-04-04T03:53:55.191Z,7.45
2019-04-04T03:54:29.026Z,7.42
2019-04-04T03:55:00.450Z,7.44
2019-04-04T03:55:31.875Z,7.44
2019-04-04T03:56:06.361Z,7.42
2019-04-04T03:56:43.606Z,7.41
2019-04-04T03:57:27.743Z,7.42
2019-04-04T03:57:59.165Z,7.41
2019-04-04T03:58:30.511Z,7.41
2019-04-04T03:59:01.934Z,7.41
2019-04-04T03:59:33.414Z,7.39
2019-04-04T04:00:07.236Z,7.39
2019-04-04T04:00:46.400Z,7.41
2019-04-04T04:01:20.489Z,7.38
2019-04-04T04:02:01.522Z,7.38
2019-04-04T04:02:41.438Z,7.38
2019-04-04T04:03:12.718Z,7.38
2019-04-04T04:03:43.986Z,7.39
2019-04-04T04:04:21.126Z,7.38
2019-04-04T04:05:00.883Z,7.38
2019-04-04T04:05:35.728Z,7.35
2019-04-04T04:06:09.107Z,7.34
2019-04-04T04:06:42.058Z,7.34
2019-04-04T04:07:15.063Z,7.35
2019-04-04T04:07:48.058Z,7.34
2019-04-04T04:08:21.988Z,7.37
2019-04-04T04:08:54.821Z,7.34
2019-04-04T04:09:27.277Z,7.33
2019-04-04T04:09:59.795Z,7.35
2019-04-04T04:10:33.275Z,7.33
2019-04-04T04:11:05.804Z,7.34
2019-04-04T04:11:38.204Z,7.33
2019-04-04T04:12:11.065Z,7.34
2019-04-04T04:12:43.844Z,7.31
2019-04-04T04:13:17.287Z,7.33
2019-04-04T04:13:49.944Z,7.31
2019-04-04T04:14:22.129Z,7.31
2019-04-04T04:14:55.083Z,7.31
2019-04-04T04:15:29.355Z,7.30
2019-04-04T04:16:02.528Z,7.31
2019-04-04T04:16:35.929Z,7.33
2019-04-04T04:17:06.588Z,7.28
2019-04-04T04:17:39.637Z,7.31
2019-04-04T04:18:10.861Z,7.30
2019-04-04T04:18:42.092Z,7.30
2019-04-04T04:19:13.295Z,7.30
2019-04-04T04:19:44.451Z,7.30
2019-04-04T04:20:15.662Z,7.31
2019-04-04T04:20:46.920Z,7.31
2019-04-04T04:21:19.128Z,7.28
2019-04-04T04:21:50.282Z,7.28
2019-04-04T04:22:21.484Z,7.31
2019-04-04T04:22:53.644Z,7.28
2019-04-04T04:23:24.846Z,7.28
2019-04-04T04:23:56.916Z,7.28
2019-04-04T04:24:30.281Z,7.24
2019-04-04T04:25:03.271Z,7.28
2019-04-04T04:25:36.519Z,7.25
2019-04-04T04:26:09.319Z,7.27
2019-04-04T04:26:42.097Z,7.27
2019-04-04T04:27:15.587Z,7.24
2019-04-04T04:27:48.796Z,7.24
2019-04-04T04:28:20.855Z,7.24
2019-04-04T04:28:53.515Z,7.25
2019-04-04T04:29:26.982Z,7.24
2019-04-04T04:30:00.217Z,7.24
2019-04-04T04:30:31.141Z,7.21
2019-04-04T04:31:02.373Z,7.23
2019-04-04T04:31:33.604Z,7.21
2019-04-04T04:32:04.796Z,7.21
2019-04-04T04:32:37.393Z,7.21
2019-04-04T04:33:08.831Z,7.23
2019-04-04T04:33:40.032Z,7.20
2019-04-04T04:34:11.203Z,7.24
2019-04-04T04:34:42.383Z,7.21
2019-04-04T04:35:13.559Z,7.21
2019-04-04T04:35:44.750Z,7.18
2019-04-04T04:36:16.467Z,7.23
2019-04-04T04:36:48.552Z,7.20
2019-04-04T04:37:20.428Z,7.21
2019-04-04T04:37:53.859Z,7.20
2019-04-04T04:38:26.787Z,7.23
2019-04-04T04:38:59.980Z,7.23
2019-04-04T04:39:35.906Z,7.21
2019-04-04T04:40:08.021Z,7.15
2019-04-04T04:40:39.331Z,7.18
2019-04-04T04:41:10.552Z,7.20
2019-04-04T04:41:41.744Z,7.18
2019-04-04T04:42:12.934Z,7.18
2019-04-04T04:42:44.114Z,7.23
2019-04-04T04:43:16.009Z,7.17
2019-04-04T04:43:47.318Z,7.18
2019-04-04T04:44:18.521Z,7.18
2019-04-04T04:44:49.705Z,7.17
2019-04-04T04:45:20.856Z,7.18
2019-04-04T04:45:52.075Z,7.18
2019-04-04T04:46:23.228Z,7.17
2019-04-04T04:46:54.726Z,7.18
2019-04-04T04:47:25.888Z,7.18
2019-04-04T04:47:57.442Z,7.17
2019-04-04T04:48:31.841Z,7.20
2019-04-04T04:49:04.302Z,7.18
2019-04-04T04:49:36.348Z,7.20
2019-04-04T04:50:09.539Z,7.15
2019-04-04T04:50:41.135Z,7.20
2019-04-04T04:51:12.783Z,7.15
2019-04-04T04:51:44.291Z,7.18
2019-04-04T04:52:15.579Z,7.18
2019-04-04T04:52:47.585Z,7.20
2019-04-04T04:53:19.629Z,7.20
2019-04-04T04:53:51.338Z,7.18
2019-04-04T04:54:23.477Z,7.18
2019-04-04T04:54:55.573Z,7.18
2019-04-04T04:55:31.582Z,7.18
2019-04-04T04:56:02.841Z,7.21
2019-04-04T04:56:34.088Z,7.20
2019-04-04T04:57:05.352Z,7.17
2019-04-04T04:57:37.196Z,7.17
2019-04-04T04:58:10.473Z,7.18
2019-04-04T04:58:42.731Z,7.17
2019-04-04T04:59:14.058Z,7.17
2019-04-04T04:59:45.326Z,7.18
2019-04-04T05:00:16.784Z,7.18
2019-04-04T05:00:48.064Z,7.20
2019-04-04T05:01:20.394Z,7.15
2019-04-04T05:01:51.636Z,7.15
2019-04-04T05:02:24.732Z,7.18
2019-04-04T05:02:55.934Z,7.17
2019-04-04T05:03:27.090Z,7.17
2019-04-04T05:03:58.303Z,7.17
2019-04-04T05:04:29.452Z,7.15
2019-04-04T05:05:00.705Z,7.17
2019-04-04T05:05:32.052Z,7.18
2019-04-04T05:06:03.540Z,7.17
2019-04-04T05:06:35.596Z,7.18
2019-04-04T05:07:08.138Z,7.18
2019-04-04T05:07:39.361Z,7.17
2019-04-04T05:08:10.730Z,7.17
2019-04-04T05:08:41.925Z,7.18
2019-04-04T05:09:14.100Z,7.18
2019-04-04T05:09:45.773Z,7.18
2019-04-04T05:10:17.979Z,7.17
2019-04-04T05:10:49.137Z,7.20
2019-04-04T05:11:20.370Z,7.21
2019-04-04T05:11:51.532Z,7.20
2019-04-04T05:12:22.748Z,7.20
2019-04-04T05:12:54.004Z,7.18
2019-04-04T05:13:28.562Z,7.21
2019-04-04T05:13:58.836Z,7.20
2019-04-04T05:14:30.440Z,7.20
2019-04-04T05:15:05.497Z,7.21
2019-04-04T05:15:36.680Z,7.23
2019-04-04T05:16:08.961Z,7.21
2019-04-04T05:16:40.219Z,7.20
2019-04-04T05:17:11.432Z,7.21
2019-04-04T05:17:42.621Z,7.21
2019-04-04T05:18:14.140Z,7.21
2019-04-04T05:18:48.125Z,7.24
2019-04-04T05:19:19.728Z,7.24
2019-04-04T05:19:50.912Z,7.23
2019-04-04T05:20:23.123Z,7.24
2019-04-04T05:20:57.343Z,7.25
2019-04-04T05:21:28.942Z,7.25
2019-04-04T05:22:00.687Z,7.25
2019-04-04T05:22:31.889Z,7.27
2019-04-04T05:23:03.058Z,7.28
2019-04-04T05:23:34.237Z,7.27
2019-04-04T05:24:06.472Z,7.31
2019-04-04T05:24:37.707Z,7.31
2019-04-04T05:25:09.161Z,7.33
2019-04-04T05:25:51.736Z,7.33
2019-04-04T05:26:13.479Z,7.33
2019-04-04T05:26:44.642Z,7.33
2019-04-04T05:27:15.828Z,7.34
2019-04-04T05:27:46.992Z,7.34
2019-04-04T05:28:18.290Z,7.35
2019-04-04T05:28:49.448Z,7.35
2019-04-04T05:29:20.669Z,7.37
2019-04-04T05:29:51.801Z,7.37
2019-04-04T05:30:23.007Z,7.37
2019-04-04T05:30:54.175Z,7.38
2019-04-04T05:31:26.481Z,7.38
2019-04-04T05:31:57.629Z,7.41
2019-04-04T05:32:28.827Z,7.41
2019-04-04T05:33:00.010Z,7.41
2019-04-04T05:33:31.672Z,7.42
2019-04-04T05:34:03.212Z,7.44
2019-04-04T05:34:34.391Z,7.41
2019-04-04T05:35:05.572Z,7.44
2019-04-04T05:35:37.836Z,7.45
2019-04-04T05:36:09.140Z,7.45
2019-04-04T05:36:40.343Z,7.42
2019-04-04T05:37:11.492Z,7.46
2019-04-04T05:37:42.726Z,7.46
2019-04-04T05:38:13.893Z,7.48
2019-04-04T05:38:47.160Z,7.48
2019-04-04T05:39:18.785Z,7.48
2019-04-04T05:39:51.431Z,7.49
2019-04-04T05:40:24.151Z,7.49
2019-04-04T05:40:56.123Z,7.49
2019-04-04T05:41:28.054Z,7.52
2019-04-04T05:42:01.038Z,7.54
2019-04-04T05:42:33.012Z,7.52
2019-04-04T05:43:04.977Z,7.55
2019-04-04T05:43:37.534Z,7.55
2019-04-04T05:44:10.212Z,7.56
2019-04-04T05:44:42.333Z,7.55
2019-04-04T05:45:14.296Z,7.54
2019-04-04T05:45:46.395Z,7.55
2019-04-04T05:46:19.025Z,7.58
2019-04-04T05:46:51.940Z,7.58
2019-04-04T05:47:23.912Z,7.56
2019-04-04T05:47:57.150Z,7.56
2019-04-04T05:48:29.105Z,7.58
2019-04-04T05:49:07.541Z,7.58
2019-04-04T05:49:33.974Z,7.59
2019-04-04T05:50:05.277Z,7.59
2019-04-04T05:50:36.493Z,7.58
2019-04-04T05:51:07.659Z,7.59
2019-04-04T05:51:38.945Z,7.58
2019-04-04T05:52:10.092Z,7.61
2019-04-04T05:52:41.291Z,7.58
2019-04-04T05:53:15.564Z,7.58
2019-04-04T05:53:46.783Z,7.62
2019-04-04T05:54:17.915Z,7.62
2019-04-04T05:54:49.149Z,7.59
2019-04-04T05:55:20.284Z,7.62
2019-04-04T05:55:51.584Z,7.61
2019-04-04T05:56:24.208Z,7.62
2019-04-04T05:56:55.790Z,7.62
2019-04-04T05:57:26.948Z,7.67
2019-04-04T05:57:58.165Z,7.65
2019-04-04T05:58:29.316Z,7.69
2019-04-04T05:59:02.042Z,7.65
2019-04-04T05:59:33.207Z,7.70
2019-04-04T06:00:05.227Z,7.69
2019-04-04T06:00:37.117Z,7.70
2019-04-04T06:01:18.842Z,7.72
2019-04-04T06:01:50.120Z,7.72
2019-04-04T06:02:21.356Z,7.73
2019-04-04T06:02:52.530Z,7.75
2019-04-04T06:03:23.784Z,7.78
2019-04-04T06:03:55.087Z,7.76
2019-04-04T06:04:26.287Z,7.78
2019-04-04T06:04:57.586Z,7.78
2019-04-04T06:05:31.666Z,7.81
2019-04-04T06:06:02.032Z,7.81
2019-04-04T06:06:34.103Z,7.83
2019-04-04T06:07:05.469Z,7.83
2019-04-04T06:07:37.212Z,7.85
2019-04-04T06:08:08.812Z,7.83
2019-04-04T06:08:43.249Z,7.86
2019-04-04T06:09:14.694Z,7.85
2019-04-04T06:09:46.961Z,7.86
2019-04-04T06:10:19.092Z,7.88
2019-04-04T06:10:50.859Z,7.85
2019-04-04T06:11:22.121Z,7.89
2019-04-04T06:11:54.369Z,7.89
2019-04-04T06:12:25.763Z,7.89
2019-04-04T06:12:57.115Z,7.90
2019-04-04T06:13:28.383Z,7.92
2019-04-04T06:13:59.689Z,7.92
2019-04-04T06:14:31.124Z,7.93
2019-04-04T06:15:04.169Z,7.96
2019-04-04T06:15:35.403Z,7.93
2019-04-04T06:16:06.611Z,7.92
2019-04-04T06:16:37.806Z,7.97
2019-04-04T06:17:09.022Z,7.96
2019-04-04T06:17:40.274Z,7.99
2019-04-04T06:18:12.021Z,8.00
2019-04-04T06:18:43.627Z,8.00
2019-04-04T06:19:15.051Z,7.99
2019-04-04T06:19:46.415Z,8.02
2019-04-04T06:20:17.663Z,8.02
2019-04-04T06:20:49.103Z,8.06
2019-04-04T06:21:20.402Z,8.04
2019-04-04T06:21:51.562Z,8.04
2019-04-04T06:22:22.759Z,8.07
2019-04-04T06:22:53.892Z,8.07
2019-04-04T06:23:25.749Z,8.10
2019-04-04T06:23:56.975Z,8.10
2019-04-04T06:24:28.155Z,8.13
2019-04-04T06:24:59.974Z,8.14
2019-04-04T06:25:34.841Z,8.16
2019-04-04T06:26:07.428Z,8.16
2019-04-04T06:26:38.830Z,8.18
2019-04-04T06:27:10.053Z,8.20
2019-04-04T06:27:41.215Z,8.20
2019-04-04T06:28:12.687Z,8.23
2019-04-04T06:28:44.475Z,8.27
2019-04-04T06:29:17.350Z,8.30
2019-04-04T06:29:49.228Z,8.25
2019-04-04T06:30:20.794Z,8.32
2019-04-04T06:30:54.234Z,8.32
2019-04-04T06:31:26.932Z,8.34
2019-04-04T06:32:00.491Z,8.34
2019-04-04T06:32:31.699Z,8.34
2019-04-04T06:33:04.831Z,8.38
2019-04-04T06:33:35.979Z,8.37
2019-04-04T06:34:10.055Z,8.37
2019-04-04T06:34:42.075Z,8.40
2019-04-04T06:35:15.462Z,8.38
2019-04-04T06:35:47.849Z,8.38
2019-04-04T06:36:19.202Z,8.40
2019-04-04T06:36:50.377Z,8.41
2019-04-04T06:37:21.562Z,8.41
2019-04-04T06:37:52.744Z,8.41
2019-04-04T06:38:24.157Z,8.42
2019-04-04T06:38:55.395Z,8.45
2019-04-04T06:39:26.597Z,8.44
2019-04-04T06:39:58.859Z,8.44
2019-04-04T06:40:31.006Z,8.49
2019-04-04T06:41:02.530Z,8.48
2019-04-04T06:41:34.576Z,8.49
2019-04-04T06:42:05.720Z,8.51
2019-04-04T06:42:37.148Z,8.52
2019-04-04T06:43:11.595Z,8.53
2019-04-04T06:43:42.093Z,8.55
2019-04-04T06:44:13.718Z,8.52
2019-04-04T06:44:45.046Z,8.55
2019-04-04T06:45:16.287Z,8.56
2019-04-04T06:45:47.601Z,8.58
2019-04-04T06:46:22.533Z,8.61
2019-04-04T06:46:53.492Z,8.61
2019-04-04T06:47:25.505Z,8.61
2019-04-04T06:47:58.242Z,8.62
2019-04-04T06:48:33.472Z,8.61
2019-04-04T06:49:04.408Z,8.62
2019-04-04T06:49:36.269Z,8.66
2019-04-04T06:50:08.482Z,8.66
2019-04-04T06:50:42.895Z,8.65
2019-04-04T06:51:14.243Z,8.66
2019-04-04T06:51:46.462Z,8.68
2019-04-04T06:52:19.200Z,8.63
2019-04-04T06:52:51.135Z,8.71
2019-04-04T06:53:22.816Z,8.71
2019-04-04T06:53:54.564Z,8.71
2019-04-04T06:54:26.332Z,8.73
2019-04-04T06:54:58.042Z,8.72
2019-04-04T06:55:29.509Z,8.73
2019-04-04T06:56:01.055Z,8.73
2019-04-04T06:56:32.596Z,8.79
2019-04-04T06:57:04.694Z,8.79
2019-04-04T06:57:36.818Z,8.80
2019-04-04T06:58:09.716Z,8.80
2019-04-04T06:58:40.935Z,8.83
2019-04-04T06:59:12.457Z,8.85
2019-04-04T06:59:44.006Z,8.86
2019-04-04T07:00:15.891Z,8.88
2019-04-04T07:00:49.987Z,8.88
2019-04-04T07:01:21.907Z,8.90
2019-04-04T07:01:53.358Z,8.93
2019-04-04T07:02:24.641Z,8.95
2019-04-04T07:02:56.298Z,8.96
2019-04-04T07:03:28.114Z,8.96
2019-04-04T07:04:00.452Z,8.95
2019-04-04T07:04:34.219Z,8.99
2019-04-04T07:05:06.202Z,8.98
2019-04-04T07:05:38.965Z,9.02
2019-04-04T07:06:10.884Z,9.02
2019-04-04T07:06:42.478Z,9.04
2019-04-04T07:07:13.753Z,9.04
2019-04-04T07:07:44.905Z,9.07
2019-04-04T07:08:16.105Z,9.09
2019-04-04T07:08:47.257Z,9.10
2019-04-04T07:09:19.253Z,9.11
2019-04-04T07:09:50.949Z,9.16
2019-04-04T07:10:22.367Z,9.16
2019-04-04T07:10:58.165Z,9.19
2019-04-04T07:11:26.693Z,9.23
2019-04-04T07:11:57.890Z,9.23
2019-04-04T07:12:29.117Z,9.26
2019-04-04T07:13:14.833Z,9.24
2019-04-04T07:13:42.264Z,9.24
2019-04-04T07:14:07.096Z,9.27
2019-04-04T07:14:45.738Z,9.28
2019-04-04T07:15:15.600Z,9.30